Time;durP1;ratioP1;P1;durP2;ratioP2;P2;SDS_P1;SDS_P2;PMS_P1;PMS_P2;Temp;Humidity;BMP_temperature;BMP_pressure;BME280_temperature;BME280_humidity;BME280_pressure;Samples;Min_cycle;Max_cycle;Signal;HPM_P1;HPM_P2
2022/11/09 00:02:59;;;;;;;27.30;16.30;;;;;;;7.31;86.70;100142.80;125371;1313;98017;-81
2022/11/09 00:06:05;;;;;;;26.70;16.60;;;;;;;7.33;86.69;100140.30;125095;1319;99061;-81
2022/11/09 00:09:10;;;;;;;28.60;18.00;;;;;;;7.35;86.51;100136.60;125518;1305;99173;-81
2022/11/09 00:12:16;;;;;;;25.30;16.30;;;;;;;7.35;86.74;100138.94;126601;1313;99172;-81
2022/11/09 00:15:22;;;;;;;26.30;15.90;;;;;;;7.32;86.86;100134.41;126636;1312;98114;-81
2022/11/09 00:18:27;;;;;;;27.10;17.80;;;;;;;7.31;86.84;100133.77;126481;1320;98011;-81
2022/11/09 00:21:33;;;;;;;26.40;15.80;;;;;;;7.33;86.88;100134.29;126338;1319;98025;-81
2022/11/09 00:24:38;;;;;;;27.30;17.50;;;;;;;7.36;87.05;100134.62;126619;1312;98079;-82
2022/11/09 00:27:44;;;;;;;30.70;18.00;;;;;;;7.39;86.94;100133.92;126522;1321;97971;-82
2022/11/09 00:30:49;;;;;;;28.40;17.50;;;;;;;7.44;86.92;100136.76;126179;1317;98195;-81
2022/11/09 00:33:56;;;;;;;28.70;18.20;;;;;;;7.44;87.03;100140.58;126424;1312;98505;-82
2022/11/09 00:37:03;;;;;;;26.90;15.90;;;;;;;7.42;87.00;100142.34;126478;1319;98012;-82
2022/11/09 00:40:12;;;;;;;24.10;15.40;;;;;;;7.42;87.14;100140.05;125633;1306;98040;-82
2022/11/09 00:43:17;;;;;;;31.40;17.70;;;;;;;7.42;87.29;100131.21;124880;1315;99255;-83
2022/11/09 00:46:25;;;;;;;29.80;17.40;;;;;;;7.46;86.99;100126.42;125041;1305;99153;-82
2022/11/09 00:49:30;;;;;;;31.00;18.80;;;;;;;7.50;87.08;100132.48;125057;1309;98055;-83
2022/11/09 00:52:36;;;;;;;31.20;19.50;;;;;;;7.50;87.33;100125.73;124989;1313;98095;-83
2022/11/09 00:55:41;;;;;;;25.90;16.00;;;;;;;7.48;87.17;100122.16;125333;1312;98383;-83
2022/11/09 00:58:47;;;;;;;24.80;14.80;;;;;;;7.48;87.47;100122.40;124769;1313;98913;-83
2022/11/09 01:01:52;;;;;;;33.40;18.90;;;;;;;7.49;87.49;100125.63;125081;1309;98079;-82
2022/11/09 01:04:58;;;;;;;29.10;18.40;;;;;;;7.52;87.48;100126.63;124741;1313;99266;-82
2022/11/09 01:08:04;;;;;;;32.60;18.80;;;;;;;7.54;87.52;100128.93;124744;1318;98151;-81
2022/11/09 01:11:11;;;;;;;30.50;18.80;;;;;;;7.55;87.53;100123.41;124801;1313;98063;-81
2022/11/09 01:14:17;;;;;;;32.50;18.90;;;;;;;7.54;87.66;100122.44;125169;1314;99135;-82
2022/11/09 01:17:22;;;;;;;30.80;17.30;;;;;;;7.52;87.61;100124.36;124879;1306;98013;-81
2022/11/09 01:20:28;;;;;;;28.00;16.50;;;;;;;7.48;87.73;100127.66;124941;1313;99173;-83
2022/11/09 01:23:35;;;;;;;28.80;18.40;;;;;;;7.47;87.69;100125.14;125461;1313;98006;-83
2022/11/09 01:26:41;;;;;;;28.80;18.30;;;;;;;7.48;87.85;100120.45;125360;1319;99080;-84
2022/11/09 01:29:46;;;;;;;31.40;18.90;;;;;;;7.51;87.65;100118.97;124866;1313;98361;-84
2022/11/09 01:32:52;;;;;;;32.00;19.30;;;;;;;7.52;87.56;100114.98;125655;1313;97998;-84
2022/11/09 01:36:03;;;;;;;29.70;16.30;;;;;;;7.49;87.76;100118.38;126223;1313;98020;-82
2022/11/09 01:39:10;;;;;;;29.90;17.40;;;;;;;7.46;87.98;100113.70;126216;1313;98013;-82
2022/11/09 01:42:24;;;;;;;31.50;18.30;;;;;;;7.46;87.95;100114.06;125645;1313;98051;-82
2022/11/09 01:45:31;;;;;;;30.70;19.00;;;;;;;7.49;87.91;100115.25;125495;1313;98779;-82
2022/11/09 01:48:40;;;;;;;30.70;17.80;;;;;;;7.50;87.55;100116.37;125224;1299;99201;-82
2022/11/09 01:51:51;;;;;;;29.40;18.70;;;;;;;7.50;87.81;100118.33;125446;1312;99057;-82
2022/11/09 01:55:00;;;;;;;30.90;18.40;;;;;;;7.48;87.67;100115.23;126147;1316;98077;-82
2022/11/09 01:58:08;;;;;;;28.00;16.20;;;;;;;7.44;87.69;100112.44;126427;1312;99198;-82
2022/11/09 02:01:15;;;;;;;28.10;16.10;;;;;;;7.39;87.57;100108.44;126259;1316;98139;-81
2022/11/09 02:04:26;;;;;;;30.80;18.60;;;;;;;7.39;87.48;100100.36;124827;1315;98772;-83
2022/11/09 02:07:34;;;;;;;32.40;19.00;;;;;;;7.41;87.60;100098.38;125017;1309;98140;-83
2022/11/09 02:10:47;;;;;;;31.20;19.10;;;;;;;7.43;87.68;100100.20;126000;1310;98001;-84
2022/11/09 02:13:57;;;;;;;31.50;19.30;;;;;;;7.42;87.86;100102.20;126039;1315;99202;-81
2022/11/09 02:17:02;;;;;;;28.70;18.50;;;;;;;7.41;87.69;100104.03;126133;1313;98050;-82
2022/11/09 02:20:11;;;;;;;30.40;17.50;;;;;;;7.39;87.80;100104.42;126346;1312;98807;-81
2022/11/09 02:23:18;;;;;;;31.30;17.70;;;;;;;7.38;87.72;100099.71;125912;1315;99179;-82
2022/11/09 02:26:29;;;;;;;31.50;18.60;;;;;;;7.38;87.77;100098.98;125953;1316;98050;-82
2022/11/09 02:29:35;;;;;;;;;;;;;;;7.40;87.85;100100.22;125103;1315;99175;-82
2022/11/09 02:32:41;;;;;;;28.60;17.30;;;;;;;7.44;87.86;100099.59;125158;1312;98323;-82
2022/11/09 02:35:46;;;;;;;35.20;20.90;;;;;;;7.44;87.96;100098.48;124890;1315;98057;-81
2022/11/09 02:38:54;;;;;;;32.30;20.30;;;;;;;7.43;87.79;100097.85;124837;1316;98388;-81
2022/11/09 02:42:05;;;;;;;33.80;18.70;;;;;;;7.40;88.13;100099.86;124929;1316;98040;-81
2022/11/09 02:45:13;;;;;;;32.40;19.30;;;;;;;7.40;88.15;100102.41;124975;1299;99211;-81
2022/11/09 02:48:19;;;;;;;39.50;21.10;;;;;;;7.38;88.35;100101.11;125038;1312;99173;-81
2022/11/09 02:51:24;;;;;;;34.50;20.60;;;;;;;7.41;88.30;100099.86;126555;1309;97956;-81
2022/11/09 02:54:30;;;;;;;39.00;25.20;;;;;;;7.43;88.40;100099.26;125126;1313;98042;-82
2022/11/09 02:57:36;;;;;;;42.50;26.40;;;;;;;7.44;88.17;100096.35;125453;1309;98040;-83
2022/11/09 03:00:43;;;;;;;36.80;22.40;;;;;;;7.42;88.27;100093.52;125203;1312;98070;-86
2022/11/09 03:03:49;;;;;;;28.20;17.10;;;;;;;7.38;88.23;100096.06;125056;1313;98019;-84
2022/11/09 03:06:55;;;;;;;30.00;17.10;;;;;;;7.33;88.24;100107.94;125012;1305;98138;-80
2022/11/09 03:10:01;;;;;;;33.00;19.50;;;;;;;7.31;88.35;100114.19;125107;1312;98013;-80
2022/11/09 03:13:06;;;;;;;35.30;19.40;;;;;;;7.31;88.49;100114.23;124744;1316;98786;-84
2022/11/09 03:16:13;;;;;;;34.00;20.20;;;;;;;7.31;88.45;100118.21;124981;1320;99288;-80
2022/11/09 03:19:19;;;;;;;35.40;21.10;;;;;;;7.31;88.47;100118.60;125023;1313;99061;-79
2022/11/09 03:22:26;;;;;;;33.40;20.80;;;;;;;7.29;88.43;100118.22;125141;1312;98026;-81
2022/11/09 03:25:32;;;;;;;35.90;19.00;;;;;;;7.24;88.30;100112.34;125005;1312;98127;-81
2022/11/09 03:28:39;;;;;;;32.30;18.40;;;;;;;7.20;88.47;100107.91;125134;1319;98467;-79
2022/11/09 03:31:45;;;;;;;34.00;19.40;;;;;;;7.19;88.45;100105.86;124735;1315;98997;-78
2022/11/09 03:34:51;;;;;;;35.90;21.30;;;;;;;7.19;88.38;100104.77;125041;1306;98013;-83
2022/11/09 03:37:58;;;;;;;33.20;20.10;;;;;;;7.19;88.22;100107.77;125102;1312;99154;-79
2022/11/09 03:41:04;;;;;;;35.00;21.40;;;;;;;7.20;88.58;100104.73;125157;1319;99156;-79
2022/11/09 03:44:10;;;;;;;34.80;20.90;;;;;;;7.18;88.47;100104.85;125003;1313;99167;-81
2022/11/09 03:47:16;;;;;;;34.40;18.50;;;;;;;7.14;88.36;100104.14;125100;1312;98055;-82
2022/11/09 03:50:21;;;;;;;31.70;19.10;;;;;;;7.12;88.30;100101.88;124985;1313;98062;-80
2022/11/09 03:53:27;;;;;;;31.70;20.10;;;;;;;7.11;88.60;100100.73;125164;1312;98033;-76
2022/11/09 03:56:32;;;;;;;35.40;20.60;;;;;;;7.12;88.54;100096.90;124852;1305;99199;-75
2022/11/09 03:59:37;;;;;;;37.50;20.20;;;;;;;7.13;88.88;100097.69;125000;1313;98686;-79
2022/11/09 04:02:43;;;;;;;33.90;20.40;;;;;;;7.13;88.40;100094.30;125134;1312;98078;-80
2022/11/09 04:05:49;;;;;;;37.30;21.70;;;;;;;7.13;88.56;100092.95;125014;1313;99198;-78
2022/11/09 04:08:54;;;;;;;34.50;19.30;;;;;;;7.11;88.43;100085.86;125590;1312;99195;-80
2022/11/09 04:12:00;;;;;;;31.40;18.20;;;;;;;7.07;88.40;100082.14;125035;1299;98829;-80
2022/11/09 04:15:07;;;;;;;34.30;21.90;;;;;;;7.07;88.83;100080.85;125087;1312;98097;-77
2022/11/09 04:18:15;;;;;;;37.30;20.80;;;;;;;7.10;88.93;100077.63;124970;1313;99195;-78
2022/11/09 04:21:20;;;;;;;39.00;21.90;;;;;;;7.12;88.54;100076.58;124901;1313;98081;-77
2022/11/09 04:24:26;;;;;;;35.30;21.40;;;;;;;7.11;88.95;100078.41;125361;1315;97954;-79
2022/11/09 04:27:31;;;;;;;32.90;19.10;;;;;;;7.09;88.78;100080.36;125561;1306;99135;-79
2022/11/09 04:30:37;;;;;;;33.50;18.40;;;;;;;7.06;88.65;100081.87;125543;1312;98002;-79
2022/11/09 04:33:43;;;;;;;38.50;21.10;;;;;;;7.05;88.67;100086.19;125284;1313;98013;-78
2022/11/09 04:36:48;;;;;;;35.70;21.10;;;;;;;7.05;88.80;100080.71;125267;1313;98767;-78
2022/11/09 04:39:54;;;;;;;34.50;20.60;;;;;;;7.05;88.87;100074.83;125345;1297;99156;-79
2022/11/09 04:43:02;;;;;;;36.70;21.40;;;;;;;7.05;88.87;100076.30;125443;1299;98044;-79
2022/11/09 04:46:07;;;;;;;33.00;21.00;;;;;;;7.02;88.90;100081.66;125460;1302;98112;-79
2022/11/09 04:49:13;;;;;;;36.10;19.40;;;;;;;6.97;88.88;100081.38;125477;1297;98096;-79
2022/11/09 04:52:19;;;;;;;34.00;18.80;;;;;;;6.93;89.12;100081.09;125582;1302;98092;-78
2022/11/09 04:55:25;;;;;;;35.20;21.00;;;;;;;6.91;89.17;100079.32;125576;1312;99177;-78
2022/11/09 04:58:30;;;;;;;34.20;20.10;;;;;;;6.93;89.01;100074.17;125510;1313;99104;-78
2022/11/09 05:01:36;;;;;;;36.80;21.70;;;;;;;6.93;89.34;100074.34;125510;1313;99153;-79
2022/11/09 05:04:42;;;;;;;36.50;21.10;;;;;;;6.91;89.27;100071.30;125481;1309;99198;-78
2022/11/09 05:07:47;;;;;;;28.20;16.80;;;;;;;6.89;89.09;100067.81;125466;1313;98108;-78
2022/11/09 05:10:55;;;;;;;31.60;17.80;;;;;;;6.86;89.10;100070.11;125498;1313;99176;-78
2022/11/09 05:14:01;;;;;;;34.90;20.60;;;;;;;6.86;89.29;100070.17;125697;1306;98095;-81
2022/11/09 05:17:07;;;;;;;35.30;20.50;;;;;;;6.87;89.31;100069.84;125757;1313;98602;-79
2022/11/09 05:20:13;;;;;;;100.30;37.70;;;;;;;6.89;89.43;100077.87;125712;1313;98105;-78
2022/11/09 05:26:43;;;;;;;39.60;21.90;;;;;;;6.86;88.97;100080.26;125784;1305;99077;-79
2022/11/09 05:29:48;;;;;;;33.00;18.80;;;;;;;6.83;89.18;100074.80;125775;1306;98550;-78
2022/11/09 05:32:54;;;;;;;33.00;18.70;;;;;;;6.81;88.80;100073.78;125815;1306;98690;-79
2022/11/09 05:35:59;;;;;;;33.10;19.20;;;;;;;6.80;88.88;100074.25;125765;1312;98292;-79
2022/11/09 05:39:05;;;;;;;33.70;20.30;;;;;;;6.79;88.51;100074.86;125827;1312;98255;-79
2022/11/09 05:42:10;;;;;;;33.00;19.80;;;;;;;6.77;88.85;100076.02;125675;1313;98028;-79
2022/11/09 05:45:18;;;;;;;34.00;20.70;;;;;;;6.77;88.71;100078.92;125814;1312;98772;-79
2022/11/09 05:48:23;;;;;;;37.40;22.20;;;;;;;6.76;88.90;100083.28;125789;1313;99128;-79
2022/11/09 05:51:29;;;;;;;33.60;19.70;;;;;;;6.73;88.91;100084.59;125184;1313;98563;-77
2022/11/09 05:54:34;;;;;;;34.40;19.00;;;;;;;6.71;88.88;100089.50;124875;1313;98156;-78
2022/11/09 05:57:39;;;;;;;36.00;19.60;;;;;;;6.72;89.03;100084.63;124891;1312;98125;-78
2022/11/09 06:00:45;;;;;;;32.80;20.40;;;;;;;6.75;88.92;100088.13;124909;1319;99202;-78
2022/11/09 06:03:53;;;;;;;35.40;20.30;;;;;;;6.77;88.86;100093.19;125128;1308;98031;-79
2022/11/09 06:06:59;;;;;;;36.40;20.80;;;;;;;6.77;88.89;100093.05;125820;1313;99195;-78
2022/11/09 06:10:05;;;;;;;36.00;20.90;;;;;;;6.77;88.84;100091.80;125735;1312;98116;-79
2022/11/09 06:13:11;;;;;;;36.20;19.50;;;;;;;6.75;88.92;100092.32;125949;1306;98010;-79
2022/11/09 06:16:17;;;;;;;34.80;19.10;;;;;;;6.76;89.27;100088.39;125938;1312;98031;-79
2022/11/09 06:19:22;;;;;;;36.20;20.40;;;;;;;6.79;89.04;100087.90;125777;1311;98455;-79
2022/11/09 06:22:27;;;;;;;39.00;22.40;;;;;;;6.84;89.47;100088.20;125411;1314;98016;-79
2022/11/09 06:25:33;;;;;;;38.80;22.20;;;;;;;6.89;89.49;100088.27;125283;1312;98396;-79
2022/11/09 06:28:40;;;;;;;35.70;21.60;;;;;;;6.94;89.41;100083.26;125687;1313;99212;-79
2022/11/09 06:31:47;;;;;;;38.10;22.40;;;;;;;6.98;89.35;100083.62;125239;1313;98645;-79
2022/11/09 06:34:53;;;;;;;35.40;19.60;;;;;;;7.01;89.43;100081.78;125497;1312;99061;-79
2022/11/09 06:38:00;;;;;;;34.80;19.90;;;;;;;7.03;89.49;100079.23;125050;1307;99183;-78
2022/11/09 06:41:05;;;;;;;38.40;22.30;;;;;;;7.11;89.80;100085.52;125044;1313;98807;-78
2022/11/09 06:44:11;;;;;;;45.90;25.00;;;;;;;7.19;89.79;100087.23;124971;1311;98011;-78
2022/11/09 06:47:16;;;;;;;36.90;22.20;;;;;;;7.26;89.67;100085.21;125082;1313;98047;-78
2022/11/09 06:50:22;;;;;;;38.50;22.50;;;;;;;7.34;89.67;100085.21;125102;1312;98989;-77
2022/11/09 06:53:28;;;;;;;38.70;23.20;;;;;;;7.40;89.41;100077.25;125094;1306;98115;-77
2022/11/09 06:56:34;;;;;;;35.50;20.20;;;;;;;7.45;89.52;100071.84;125140;1311;98671;-78
2022/11/09 06:59:39;;;;;;;34.00;18.90;;;;;;;7.52;89.52;100069.11;125018;1308;99173;-78
2022/11/09 07:02:45;;;;;;;35.90;20.80;;;;;;;7.59;89.52;100070.57;125106;1306;99073;-77
2022/11/09 07:05:52;;;;;;;60.10;26.00;;;;;;;7.69;89.59;100074.66;125130;1314;98102;-78
2022/11/09 07:08:58;;;;;;;40.40;22.80;;;;;;;7.80;89.68;100074.38;125232;1312;98045;-77
2022/11/09 07:12:03;;;;;;;36.70;22.40;;;;;;;7.90;89.75;100072.20;125156;1309;98816;-78
2022/11/09 07:15:11;;;;;;;32.00;19.00;;;;;;;7.99;89.60;100067.70;125103;1313;98325;-77
2022/11/09 07:18:16;;;;;;;31.90;18.10;;;;;;;8.04;89.61;100074.85;125005;1318;98778;-78
2022/11/09 07:21:22;;;;;;;37.90;21.00;;;;;;;8.12;89.76;100073.56;124957;1313;99058;-78
2022/11/09 07:24:27;;;;;;;46.80;23.80;;;;;;;8.21;89.69;100077.30;124990;1312;98033;-78
2022/11/09 07:27:33;;;;;;;38.70;22.20;;;;;;;8.32;89.75;100081.37;125004;1313;99183;-79
2022/11/09 07:30:39;;;;;;;36.80;22.00;;;;;;;8.40;89.65;100081.14;125440;1311;99167;-79
2022/11/09 07:33:44;;;;;;;35.00;21.20;;;;;;;8.46;89.80;100086.23;125500;1312;98722;-79
2022/11/09 07:36:52;;;;;;;33.40;19.50;;;;;;;8.52;89.85;100082.13;125330;1318;97937;-79
2022/11/09 07:39:58;;;;;;;31.70;17.60;;;;;;;8.57;89.74;100082.70;125266;1313;98129;-78
2022/11/09 07:43:05;;;;;;;34.10;20.50;;;;;;;8.65;89.83;100082.33;125211;1305;99219;-79
2022/11/09 07:46:11;;;;;;;36.90;21.70;;;;;;;8.75;89.80;100080.73;125483;1312;98041;-79
2022/11/09 07:49:17;;;;;;;35.20;21.30;;;;;;;8.85;89.66;100078.66;125292;1312;98775;-78
2022/11/09 07:52:23;;;;;;;35.00;22.30;;;;;;;8.94;89.43;100075.63;125218;1312;98163;-79
2022/11/09 07:55:30;;;;;;;32.90;21.40;;;;;;;9.03;89.51;100076.54;125314;1313;98008;-79
2022/11/09 07:58:35;;;;;;;32.40;18.80;;;;;;;9.09;89.43;100073.73;125426;1313;97997;-79
2022/11/09 08:01:41;;;;;;;35.40;19.60;;;;;;;9.16;89.35;100075.38;125161;1313;98804;-78
2022/11/09 08:04:46;;;;;;;32.60;19.50;;;;;;;9.23;89.38;100066.72;125625;1312;98039;-78
2022/11/09 08:07:57;;;;;;;34.70;20.80;;;;;;;9.34;89.42;100068.64;125637;1312;98061;-78
2022/11/09 08:11:03;;;;;;;36.40;22.00;;;;;;;9.44;89.45;100061.95;125567;1319;98789;-78
2022/11/09 08:14:08;;;;;;;36.60;22.80;;;;;;;9.53;89.10;100058.05;125473;1307;98830;-78
2022/11/09 08:17:14;;;;;;;35.00;21.60;;;;;;;9.59;89.23;100050.92;125477;1312;99061;-79
2022/11/09 08:20:20;;;;;;;32.50;19.00;;;;;;;9.65;89.22;100053.88;125371;1312;98113;-79
2022/11/09 08:23:25;;;;;;;29.30;17.60;;;;;;;9.70;88.98;100053.05;125355;1312;98737;-78
2022/11/09 08:26:31;;;;;;;34.30;21.20;;;;;;;9.76;89.28;100055.24;125276;1313;98044;-78
2022/11/09 08:29:36;;;;;;;30.00;20.00;;;;;;;9.83;88.80;100054.90;125356;1313;98040;-78
2022/11/09 08:32:42;;;;;;;30.90;19.40;;;;;;;9.90;88.65;100053.93;125385;1309;99134;-78
2022/11/09 08:35:48;;;;;;;33.60;20.60;;;;;;;9.96;89.00;100056.65;125428;1311;99171;-78
2022/11/09 08:38:53;;;;;;;32.10;19.80;;;;;;;10.04;89.07;100063.70;125385;1313;99148;-78
2022/11/09 08:41:59;;;;;;;31.60;18.60;;;;;;;10.11;89.06;100070.45;125366;1313;98109;-78
2022/11/09 08:45:05;;;;;;;27.90;17.50;;;;;;;10.18;88.71;100066.33;125288;1321;99074;-78
2022/11/09 08:48:16;;;;;;;33.80;20.70;;;;;;;10.29;88.72;100063.17;125173;1312;98797;-78
2022/11/09 08:51:22;;;;;;;30.30;19.50;;;;;;;10.38;88.75;100070.26;125130;1313;98034;-77
2022/11/09 08:54:27;;;;;;;29.40;18.80;;;;;;;10.46;88.70;100076.52;125074;1306;99167;-78
2022/11/09 08:57:33;;;;;;;29.20;19.70;;;;;;;10.53;88.53;100075.77;125033;1312;99099;-78
2022/11/09 09:00:38;;;;;;;31.00;20.30;;;;;;;10.61;88.85;100077.14;124952;1312;98781;-78
2022/11/09 09:03:44;;;;;;;28.50;18.10;;;;;;;10.69;88.28;100076.65;124938;1315;98028;-77
2022/11/09 09:06:49;;;;;;;28.40;17.60;;;;;;;10.76;88.55;100078.13;125206;1299;98039;-77
2022/11/09 09:09:55;;;;;;;30.60;19.40;;;;;;;10.87;88.26;100080.14;125058;1305;99172;-78
2022/11/09 09:13:01;;;;;;;28.60;18.80;;;;;;;10.99;88.43;100073.40;125169;1304;98783;-77
2022/11/09 09:16:15;;;;;;;29.20;19.20;;;;;;;11.12;88.28;100072.39;125115;1305;98006;-77
2022/11/09 09:19:20;;;;;;;29.00;19.30;;;;;;;11.20;87.74;100079.58;125216;1306;99629;-77
2022/11/09 09:22:25;;;;;;;31.00;21.50;;;;;;;11.22;87.67;100082.91;124985;1313;98346;-77
2022/11/09 09:25:31;;;;;;;31.70;20.90;;;;;;;11.24;87.81;100085.73;124895;1313;98105;-78
2022/11/09 09:28:36;;;;;;;29.00;18.20;;;;;;;11.23;87.49;100083.41;124968;1304;98792;-78
2022/11/09 09:31:42;;;;;;;24.80;16.40;;;;;;;11.21;87.93;100079.77;125047;1313;98001;-78
2022/11/09 09:34:48;;;;;;;29.90;19.10;;;;;;;11.25;87.62;100077.80;124984;1306;98089;-77
2022/11/09 09:37:53;;;;;;;29.20;19.10;;;;;;;11.28;87.75;100077.48;124901;1310;99196;-77
2022/11/09 09:41:01;;;;;;;28.70;19.20;;;;;;;11.32;87.74;100081.67;124873;1309;98476;-77
2022/11/09 09:44:23;;;;;;;28.20;19.20;;;;;;;11.36;87.17;100078.91;124885;1312;99279;-77
2022/11/09 09:47:42;;;;;;;31.70;19.30;;;;;;;11.37;87.30;100070.10;124991;1313;98697;-77
2022/11/09 09:50:52;;;;;;;31.00;20.30;;;;;;;11.36;86.86;100067.67;124941;1311;99158;-77
2022/11/09 09:54:10;;;;;;;27.40;18.10;;;;;;;11.36;87.23;100062.17;124963;1319;98130;-78
2022/11/09 09:57:19;;;;;;;28.20;17.60;;;;;;;11.39;87.08;100056.54;124808;1305;98134;-78
2022/11/09 10:00:27;;;;;;;29.60;18.70;;;;;;;11.43;87.04;100055.98;124807;1308;98459;-77
2022/11/09 10:03:33;;;;;;;27.90;18.80;;;;;;;11.52;87.06;100055.02;124985;1313;99195;-77
2022/11/09 10:06:48;;;;;;;30.40;19.80;;;;;;;11.62;86.90;100049.64;124947;1307;97992;-77
2022/11/09 10:10:17;;;;;;;30.20;19.90;;;;;;;11.70;86.75;100050.05;124922;1315;98002;-78
2022/11/09 10:13:47;;;;;;;30.90;19.40;;;;;;;11.76;86.92;100055.57;124863;1305;99138;-77
2022/11/09 10:17:00;;;;;;;29.10;19.50;;;;;;;11.82;86.67;100059.14;124896;1312;98368;-78
2022/11/09 10:20:20;;;;;;;26.60;16.60;;;;;;;11.84;86.70;100059.28;125007;1313;99084;-77
2022/11/09 10:23:43;;;;;;;27.50;17.30;;;;;;;11.86;86.37;100054.92;125165;1311;98887;-78
2022/11/09 10:26:51;;;;;;;28.00;18.10;;;;;;;11.92;86.33;100053.00;125124;1303;98102;-78
2022/11/09 10:29:59;;;;;;;28.50;18.80;;;;;;;12.00;86.14;100054.64;125313;1313;99055;-78
2022/11/09 10:33:21;;;;;;;28.40;19.10;;;;;;;12.07;86.20;100055.34;125225;1309;98671;-78
2022/11/09 10:36:28;;;;;;;;;;;;;;;12.14;86.19;100052.57;125224;1309;98030;-77
2022/11/09 10:39:43;;;;;;;27.80;18.50;;;;;;;12.19;85.86;100057.23;125179;1313;98004;-78
2022/11/09 10:43:12;;;;;;;32.50;19.90;;;;;;;12.21;85.64;100051.15;125246;1311;99170;-77
2022/11/09 10:47:05;;;;;;;28.40;16.80;;;;;;;12.22;85.70;100052.36;125186;1310;98003;-77
2022/11/09 10:50:34;;;;;;;25.80;18.00;;;;;;;12.24;85.82;100046.70;124985;1313;97998;-77
2022/11/09 10:54:16;;;;;;;28.10;18.60;;;;;;;12.29;85.56;100040.41;124956;1309;98094;-77
2022/11/09 10:57:52;;;;;;;28.70;18.80;;;;;;;12.35;85.37;100036.52;125140;1310;98333;-77
2022/11/09 11:01:18;;;;;;;28.80;19.20;;;;;;;12.44;86.37;100039.11;125129;1304;98675;-77
2022/11/09 11:04:42;;;;;;;29.80;17.80;;;;;;;12.57;86.11;100033.42;125136;1316;99193;-77
2022/11/09 11:08:29;;;;;;;28.20;17.30;;;;;;;12.67;86.09;100028.78;125196;1312;98072;-77
2022/11/09 11:12:13;;;;;;;25.90;17.70;;;;;;;12.78;85.71;100034.43;125122;1307;98112;-80
2022/11/09 11:15:40;;;;;;;28.80;19.20;;;;;;;12.88;85.47;100041.69;125148;1301;98015;-77
2022/11/09 11:19:05;;;;;;;29.60;19.50;;;;;;;13.00;85.64;100046.46;125262;1304;99169;-77
2022/11/09 11:22:30;;;;;;;28.30;19.60;;;;;;;13.10;85.21;100049.36;125259;1316;99109;-77
2022/11/09 11:26:12;;;;;;;29.40;20.60;;;;;;;13.16;85.34;100050.00;125075;1310;98042;-77
2022/11/09 11:29:44;;;;;;;29.70;18.70;;;;;;;13.20;84.25;100049.25;125018;1313;98021;-77
2022/11/09 11:33:14;;;;;;;27.10;18.40;;;;;;;13.19;84.83;100054.14;124975;1306;98027;-77
2022/11/09 11:36:51;;;;;;;27.50;18.70;;;;;;;13.32;85.47;100058.17;124901;1316;99284;-77
2022/11/09 11:40:24;;;;;;;27.30;18.80;;;;;;;13.45;85.03;100058.13;124922;1313;98097;-77
2022/11/09 11:43:56;;;;;;;29.90;20.20;;;;;;;13.52;84.73;100058.95;124950;1312;99105;-77
2022/11/09 11:47:32;;;;;;;26.10;17.40;;;;;;;13.51;84.02;100059.63;124848;1313;98034;-77
2022/11/09 11:51:06;;;;;;;24.20;17.00;;;;;;;13.49;84.30;100053.17;124951;1314;99150;-77
2022/11/09 11:54:40;;;;;;;26.40;17.20;;;;;;;13.53;84.21;100053.21;124971;1310;98004;-77
2022/11/09 11:58:19;;;;;;;24.40;17.70;;;;;;;13.61;84.43;100048.27;124892;1312;98034;-77
2022/11/09 12:01:57;;;;;;;26.30;17.30;;;;;;;13.69;84.32;100053.55;124879;1313;98008;-77
2022/11/09 12:05:40;;;;;;;25.80;18.50;;;;;;;13.73;83.87;100053.79;124838;1312;99143;-78
2022/11/09 12:09:14;;;;;;;26.80;18.80;;;;;;;13.68;83.91;100046.52;124922;1305;99132;-81
2022/11/09 12:12:47;;;;;;;25.80;15.70;;;;;;;13.64;83.70;100051.54;125186;1312;98036;-81
2022/11/09 12:16:19;;;;;;;26.20;16.60;;;;;;;13.65;83.66;100051.02;125068;1313;98776;-81
2022/11/09 12:20:17;;;;;;;24.10;16.40;;;;;;;13.64;83.17;100047.75;124955;1312;98839;-84
2022/11/09 12:23:56;;;;;;;24.30;16.60;;;;;;;13.58;82.88;100050.60;125023;1313;99053;-81
2022/11/09 12:27:36;;;;;;;27.20;18.40;;;;;;;13.52;83.18;100047.33;125067;1318;99167;-82
2022/11/09 12:31:12;;;;;;;24.70;17.40;;;;;;;13.47;83.02;100045.45;124946;1313;98028;-81
2022/11/09 12:34:46;;;;;;;27.60;19.10;;;;;;;13.41;82.99;100043.25;124949;1313;97995;-81
2022/11/09 12:38:17;;;;;;;29.30;18.80;;;;;;;13.34;83.00;100044.41;125054;1312;98696;-82
2022/11/09 12:41:43;;;;;;;28.20;19.50;;;;;;;13.28;83.15;100045.73;124952;1313;99157;-81
2022/11/09 12:45:18;;;;;;;28.80;20.00;;;;;;;13.25;83.19;100047.36;124972;1317;98020;-82
2022/11/09 12:48:43;;;;;;;33.70;21.80;;;;;;;13.22;82.99;100045.85;124984;1310;98004;-82
2022/11/09 12:52:11;;;;;;;34.30;22.90;;;;;;;13.18;83.13;100044.70;125069;1307;98015;-82
2022/11/09 12:55:43;;;;;;;35.50;22.40;;;;;;;13.14;83.09;100047.14;124988;1319;98974;-81
2022/11/09 12:59:36;;;;;;;32.50;20.60;;;;;;;13.11;83.07;100042.54;124986;1319;98012;-81
2022/11/09 13:03:02;;;;;;;32.70;20.40;;;;;;;13.09;83.14;100034.41;124995;1312;97998;-82
2022/11/09 13:06:28;;;;;;;28.80;19.40;;;;;;;13.08;83.03;100027.55;124975;1316;99227;-81
2022/11/09 13:09:57;;;;;;;33.60;21.80;;;;;;;13.08;82.99;100031.59;125183;1309;98016;-81
2022/11/09 13:13:24;;;;;;;31.70;21.00;;;;;;;13.06;83.02;100029.70;125175;1305;98805;-82
2022/11/09 13:16:50;;;;;;;30.50;20.30;;;;;;;13.04;82.75;100031.05;125199;1316;98027;-81
2022/11/09 13:20:43;;;;;;;29.80;20.10;;;;;;;12.99;82.76;100027.66;125200;1313;98683;-81
2022/11/09 13:24:54;;;;;;;29.20;19.90;;;;;;;12.94;82.80;100029.42;125211;1312;98779;-81
2022/11/09 13:28:43;;;;;;;27.60;19.10;;;;;;;12.91;82.82;100034.76;125196;1312;98686;-81
2022/11/09 13:32:25;;;;;;;27.40;17.60;;;;;;;12.88;82.76;100045.77;125223;1316;98810;-82
2022/11/09 13:36:13;;;;;;;27.50;18.70;;;;;;;12.86;82.71;100039.92;125176;1313;98108;-82
2022/11/09 13:39:40;;;;;;;27.20;18.70;;;;;;;12.84;82.54;100036.45;125153;1316;98095;-82
2022/11/09 13:43:13;;;;;;;28.20;19.00;;;;;;;12.79;82.47;100042.90;125209;1314;98022;-85
2022/11/09 13:46:39;;;;;;;31.20;20.40;;;;;;;12.71;82.44;100042.79;125153;1312;98589;-79
2022/11/09 13:50:18;;;;;;;30.20;18.90;;;;;;;12.63;82.46;100049.41;125201;1316;98684;-81
2022/11/09 13:53:57;;;;;;;27.80;17.40;;;;;;;12.55;82.49;100060.69;125187;1303;98006;-81
2022/11/09 13:57:24;;;;;;;29.80;18.70;;;;;;;12.50;82.40;100064.45;125190;1316;98037;-81
2022/11/09 14:00:51;;;;;;;29.60;18.70;;;;;;;12.48;82.46;100070.28;125295;1302;99172;-82
2022/11/09 14:04:26;;;;;;;28.10;18.50;;;;;;;12.46;82.48;100080.45;125207;1305;99172;-84
2022/11/09 14:07:50;;;;;;;28.70;19.50;;;;;;;12.44;82.40;100079.85;125176;1304;98090;-82
2022/11/09 14:11:45;;;;;;;26.00;18.10;;;;;;;12.40;82.35;100070.33;124976;1316;98085;-81
2022/11/09 14:15:34;;;;;;;28.50;16.90;;;;;;;12.34;82.33;100062.52;124951;1313;99082;-82
2022/11/09 14:19:12;;;;;;;27.50;18.40;;;;;;;12.32;82.43;100057.63;125057;1318;98766;-81
2022/11/09 14:22:40;;;;;;;27.30;17.80;;;;;;;12.29;82.49;100067.54;125066;1319;99150;-81
2022/11/09 14:26:15;;;;;;;29.90;19.00;;;;;;;12.25;82.32;100068.20;125086;1319;98002;-82
2022/11/09 14:29:50;;;;;;;31.20;19.70;;;;;;;12.19;82.44;100069.05;125037;1318;98125;-82
2022/11/09 14:33:25;;;;;;;28.50;19.20;;;;;;;12.13;82.48;100065.60;124971;1313;99183;-81
2022/11/09 14:36:49;;;;;;;28.10;17.50;;;;;;;12.02;82.54;100064.98;124911;1319;98776;-81
2022/11/09 14:40:21;;;;;;;25.90;15.50;;;;;;;11.94;82.54;100065.70;125032;1318;98013;-82
2022/11/09 14:43:48;;;;;;;29.60;17.90;;;;;;;11.88;82.65;100066.77;124951;1306;186566;-81